Time;durP1;ratioP1;P1;durP2;ratioP2;P2;SDS_P1;SDS_P2;PMS_P1;PMS_P2;Temp;Humidity;BMP_temperature;BMP_pressure;BME280_temperature;BME280_humidity;BME280_pressure;Samples;Min_cycle;Max_cycle;Signal;HPM_P1;HPM_P2
2023/02/22 00:02:58;;;;;;;;;;;;;;;5.20;100.00;95589.50;10525507;28;2442;-68
2023/02/22 00:08:01;;;;;;;;;;;;;;;5.23;100.00;95578.38;10540029;28;3162;-69
2023/02/22 00:13:04;;;;;;;;;;;;;;;5.24;100.00;95577.31;10522452;28;3038;-68
2023/02/22 00:18:09;;;;;;;;;;;;;;;5.10;100.00;95568.06;10522495;28;3023;-70
2023/02/22 00:23:12;;;;;;;;;;;;;;;5.05;100.00;95568.78;10517729;28;2277;-70
2023/02/22 00:28:15;;;;;;;;;;;;;;;5.02;100.00;95571.91;10519384;28;3474;-69
2023/02/22 00:33:18;;;;;;;;;;;;;;;4.96;100.00;95561.41;10522804;28;2281;-69
2023/02/22 00:38:20;;;;;;;;;;;;;;;4.72;100.00;95561.59;10527593;28;3006;-68
2023/02/22 00:43:23;;;;;;;;;;;;;;;4.62;100.00;95566.75;10524518;28;3182;-69
2023/02/22 00:48:26;;;;;;;;;;;;;;;4.61;100.00;95560.63;10520684;28;2304;-70
2023/02/22 00:53:29;;;;;;;;;;;;;;;4.63;100.00;95564.91;10526740;28;2974;-69
2023/02/22 00:58:32;;;;;;;;;;;;;;;4.52;100.00;95561.28;10524769;28;2317;-68
2023/02/22 01:03:37;;;;;;;;;;;;;;;4.51;100.00;95552.47;10522123;28;2999;-68
2023/02/22 01:08:39;;;;;;;;;;;;;;;4.48;100.00;95554.81;10527589;28;3007;-69
2023/02/22 01:13:44;;;;;;;;;;;;;;;4.52;100.00;95545.31;10513900;28;2997;-72
2023/02/22 01:18:46;;;;;;;;;;;;;;;4.51;100.00;95541.00;10527001;28;3062;-75
2023/02/22 01:23:49;;;;;;;;;;;;;;;4.54;100.00;95544.00;10525014;28;2995;-72
2023/02/22 01:28:51;;;;;;;;;;;;;;;4.56;100.00;95543.75;10514734;28;2250;-73
2023/02/22 01:33:53;;;;;;;;;;;;;;;4.72;100.00;95534.19;10520779;28;3062;-70
2023/02/22 01:38:56;;;;;;;;;;;;;;;4.78;100.00;95531.34;10524280;28;2347;-69
2023/02/22 01:44:05;;;;;;;;;;;;;;;4.86;100.00;95530.94;10521938;28;3110;-69
2023/02/22 01:49:09;;;;;;;;;;;;;;;4.68;100.00;95530.38;10525154;28;3010;-68
2023/02/22 01:54:12;;;;;;;;;;;;;;;4.64;100.00;95532.69;10529206;28;3030;-68
2023/02/22 01:59:15;;;;;;;;;;;;;;;4.60;100.00;95528.94;10531519;28;2972;-69
2023/02/22 02:04:18;;;;;;;;;;;;;;;4.67;100.00;95526.09;10529571;28;3115;-69
2023/02/22 02:09:21;;;;;;;;;;;;;;;4.69;100.00;95514.16;10523821;28;3034;-71
2023/02/22 02:14:23;;;;;;;;;;;;;;;4.68;100.00;95509.88;10520457;28;2246;-69
2023/02/22 02:19:26;;;;;;;;;;;;;;;4.64;100.00;95506.06;10522964;28;2332;-69
2023/02/22 02:24:28;;;;;;;;;;;;;;;4.67;100.00;95502.94;10526578;28;2986;-69
2023/02/22 02:29:31;;;;;;;;;;;;;;;4.65;100.00;95486.41;10519426;28;2294;-67
2023/02/22 02:34:33;;;;;;;;;;;;;;;4.72;100.00;95476.41;10522728;28;2285;-69
2023/02/22 02:39:35;;;;;;;;;;;;;;;4.69;100.00;95474.22;10519286;28;2242;-68
2023/02/22 02:44:39;;;;;;;;;;;;;;;4.56;100.00;95470.03;10517073;28;3034;-68
2023/02/22 02:49:41;;;;;;;;;;;;;;;4.47;100.00;95468.03;10522442;28;2943;-68
2023/02/22 02:54:44;;;;;;;;;;;;;;;4.48;100.00;95459.78;10520374;28;3265;-67
2023/02/22 02:59:48;;;;;;;;;;;;;;;4.61;100.00;95454.13;10505667;28;3033;-68
2023/02/22 03:04:52;;;;;;;;;;;;;;;4.63;100.00;95453.88;10526233;28;2289;-67
2023/02/22 03:09:57;;;;;;;;;;;;;;;4.48;100.00;95451.81;10529333;28;2332;-68
2023/02/22 03:15:00;;;;;;;;;;;;;;;4.49;100.00;95444.63;10528823;28;3033;-67
2023/02/22 03:20:08;;;;;;;;;;;;;;;4.51;100.00;95437.19;10531952;28;2600;-67
2023/02/22 03:25:10;;;;;;;;;;;;;;;4.49;100.00;95440.09;10525909;28;2403;-69
2023/02/22 03:30:13;;;;;;;;;;;;;;;4.31;100.00;95443.81;10507862;28;3126;-69
2023/02/22 03:35:16;;;;;;;;;;;;;;;4.22;100.00;95445.28;10530995;28;3141;-68
2023/02/22 03:40:24;;;;;;;;;;;;;;;4.07;100.00;95463.63;10522241;28;2380;-69
2023/02/22 03:45:28;;;;;;;;;;;;;;;4.01;100.00;95460.09;10527276;28;2333;-68
2023/02/22 03:50:30;;;;;;;;;;;;;;;3.99;100.00;95472.00;10528466;28;3164;-69
2023/02/22 03:55:34;;;;;;;;;;;;;;;3.96;100.00;95469.84;10526558;28;3010;-68
2023/02/22 04:00:36;;;;;;;;;;;;;;;3.88;100.00;95475.53;10537397;28;2266;-68
2023/02/22 04:05:39;;;;;;;;;;;;;;;3.87;100.00;95476.56;10527519;28;2341;-67
2023/02/22 04:10:44;;;;;;;;;;;;;;;3.77;100.00;95478.03;10532149;28;2979;-66
2023/02/22 04:15:47;;;;;;;;;;;;;;;3.77;100.00;95475.34;10531069;28;3037;-70
2023/02/22 04:20:50;;;;;;;;;;;;;;;3.83;100.00;95467.47;10527697;28;2345;-68
2023/02/22 04:25:52;;;;;;;;;;;;;;;3.79;100.00;95461.81;10527649;28;2269;-69
2023/02/22 04:30:55;;;;;;;;;;;;;;;3.66;100.00;95460.25;10523351;28;2344;-68
2023/02/22 04:35:58;;;;;;;;;;;;;;;3.56;100.00;95456.59;10525277;28;3390;-69
2023/02/22 04:41:01;;;;;;;;;;;;;;;3.52;100.00;95448.31;10522049;28;2269;-68
2023/02/22 04:46:04;;;;;;;;;;;;;;;3.42;100.00;95448.91;10520715;28;2312;-69
2023/02/22 04:51:07;;;;;;;;;;;;;;;3.42;100.00;95445.44;10522539;28;3019;-69
2023/02/22 04:56:09;;;;;;;;;;;;;;;3.39;100.00;95444.06;10521981;28;3086;-69
2023/02/22 05:01:12;;;;;;;;;;;;;;;3.35;100.00;95450.88;10511832;28;2360;-71
2023/02/22 05:06:15;;;;;;;;;;;;;;;3.31;100.00;95448.94;10525933;28;2285;-76
2023/02/22 05:11:17;;;;;;;;;;;;;;;3.28;100.00;95444.91;10525375;28;2381;-67
2023/02/22 05:16:20;;;;;;;;;;;;;;;3.25;100.00;95445.41;10524192;28;2987;-66
2023/02/22 05:21:22;;;;;;;;;;;;;;;3.34;100.00;95441.31;10520433;28;2316;-68
2023/02/22 05:26:25;;;;;;;;;;;;;;;3.39;100.00;95429.97;10521493;28;2978;-69
2023/02/22 05:31:27;;;;;;;;;;;;;;;3.49;100.00;95430.16;10522273;28;3049;-69
2023/02/22 05:36:30;;;;;;;;;;;;;;;3.39;100.00;95427.31;10523502;28;3007;-69
2023/02/22 05:41:33;;;;;;;;;;;;;;;3.33;100.00;95421.09;10524063;28;3118;-70
2023/02/22 05:46:36;;;;;;;;;;;;;;;3.31;100.00;95423.19;10522789;28;3009;-69
2023/02/22 05:51:39;;;;;;;;;;;;;;;3.26;100.00;95417.78;10526325;28;3049;-69
2023/02/22 05:56:42;;;;;;;;;;;;;;;3.33;100.00;95420.31;10514975;28;2976;-67
2023/02/22 06:01:44;;;;;;;;;;;;;;;3.42;100.00;95418.88;10522555;28;3383;-68
2023/02/22 06:06:47;;;;;;;;;;;;;;;3.46;100.00;95420.03;10519708;28;2999;-68
2023/02/22 06:11:49;;;;;;;;;;;;;;;3.52;100.00;95411.91;10523736;28;2304;-69
2023/02/22 06:16:51;;;;;;;;;;;;;;;3.63;100.00;95404.94;10521210;28;2265;-69
2023/02/22 06:21:55;;;;;;;;;;;;;;;3.71;100.00;95415.16;10520253;28;3069;-70
2023/02/22 06:26:58;;;;;;;;;;;;;;;3.84;100.00;95415.91;10520447;28;2352;-68
2023/02/22 06:32:10;;;;;;;;;;;;;;;3.97;100.00;95420.91;10517958;28;3221;-69
2023/02/22 06:37:12;;;;;;;;;;;;;;;3.96;100.00;95425.44;10514061;28;3061;-68
2023/02/22 06:42:15;;;;;;;;;;;;;;;4.08;100.00;95425.38;10520556;28;2332;-68
2023/02/22 06:47:18;;;;;;;;;;;;;;;4.06;100.00;95427.44;10516211;28;3091;-69
2023/02/22 06:52:21;;;;;;;;;;;;;;;4.22;100.00;95441.81;10516161;28;3090;-68
2023/02/22 06:57:24;;;;;;;;;;;;;;;4.37;100.00;95442.06;10517700;28;2273;-67
2023/02/22 07:02:27;;;;;;;;;;;;;;;4.55;100.00;95438.34;10520714;28;3363;-68
2023/02/22 07:07:30;;;;;;;;;;;;;;;4.69;100.00;95433.47;10519700;28;3031;-68
2023/02/22 07:12:32;;;;;;;;;;;;;;;4.81;100.00;95452.81;10516333;28;3051;-68
2023/02/22 07:17:34;;;;;;;;;;;;;;;4.87;100.00;95436.66;10516545;28;2745;-69
2023/02/22 07:22:39;;;;;;;;;;;;;;;5.14;100.00;95438.59;10517675;28;2737;-69
2023/02/22 07:27:42;;;;;;;;;;;;;;;5.28;100.00;95439.03;10519659;28;2745;-68
2023/02/22 07:32:46;;;;;;;;;;;;;;;5.48;100.00;95441.16;10513487;28;2730;-71
2023/02/22 07:37:49;;;;;;;;;;;;;;;5.63;100.00;95435.97;10510935;28;2749;-74
2023/02/22 07:42:52;;;;;;;;;;;;;;;5.76;100.00;95432.91;10520532;28;2775;-74
2023/02/22 07:47:55;;;;;;;;;;;;;;;5.87;100.00;95423.97;10524439;28;2945;-74
2023/02/22 07:52:57;;;;;;;;;;;;;;;6.07;100.00;95428.72;10519380;28;2029;-74
2023/02/22 07:58:00;;;;;;;;;;;;;;;6.04;100.00;95415.06;10536352;28;2741;-73
2023/02/22 08:03:02;;;;;;;;;;;;;;;6.33;100.00;95420.94;10531066;28;3027;-71
2023/02/22 08:08:05;;;;;;;;;;;;;;;6.43;100.00;95408.47;10526375;28;2106;-71
2023/02/22 08:13:08;;;;;;;;;;;;;;;6.60;100.00;95404.81;10530863;28;2710;-74
2023/02/22 08:18:16;;;;;;;;;;;;;;;6.84;100.00;95403.38;10527099;28;2647;-76
2023/02/22 08:23:18;;;;;;;;;;;;;;;6.94;100.00;95399.97;10530541;28;2070;-76
2023/02/22 08:28:22;;;;;;;;;;;;;;;7.32;100.00;95396.13;10538366;28;2793;-74
2023/02/22 08:33:24;;;;;;;;;;;;;;;7.70;100.00;95397.56;10534833;28;2792;-74
2023/02/22 08:38:27;;;;;;;;;;;;;;;7.85;100.00;95391.44;10532783;28;2741;-77
2023/02/22 08:43:35;;;;;;;;;;;;;;;8.13;94.89;95380.22;10528217;28;2845;-75
2023/02/22 08:48:41;;;;;;;;;;;;;;;8.27;93.46;95382.34;10530346;28;2129;-74
2023/02/22 08:53:44;;;;;;;;;;;;;;;8.53;89.80;95383.19;10521400;28;2706;-75
2023/02/22 08:58:57;;;;;;;;;;;;;;;8.64;91.31;95376.72;10523915;28;2077;-73
2023/02/22 09:04:09;;;;;;;;;;;;;;;8.83;83.64;95371.59;10527557;28;2822;-73
2023/02/22 09:09:32;;;;;;;;;;;;;;;9.04;82.08;95370.47;10536738;28;2037;-74
2023/02/22 09:14:52;;;;;;;;;;;;;;;9.29;79.58;95371.44;10530727;28;2139;-73
2023/02/22 09:20:02;;;;;;;;;;;;;;;9.54;75.59;95365.94;10511066;28;2725;-73
2023/02/22 09:25:04;;;;;;;;;;;;;;;9.70;73.88;95370.16;10530623;28;2671;-74
2023/02/22 09:30:18;;;;;;;;;;;;;;;10.01;70.01;95356.56;10524668;28;2028;-77
2023/02/22 09:35:25;;;;;;;;;;;;;;;10.07;68.16;95363.50;10523814;28;2635;-74
2023/02/22 09:40:29;;;;;;;;;;;;;;;10.02;64.80;95364.31;10515915;28;2066;-76
2023/02/22 09:45:33;;;;;;;;;;;;;;;10.20;66.80;95352.09;10521224;28;2094;-75
2023/02/22 09:50:36;;;;;;;;;;;;;;;10.56;66.75;95349.16;10521296;28;2036;-76
2023/02/22 09:55:40;;;;;;;;;;;;;;;10.87;59.31;95343.44;10525893;28;1966;-76
2023/02/22 10:00:43;;;;;;;;;;;;;;;10.96;58.51;95341.75;10521807;28;2769;-75
2023/02/22 10:05:46;;;;;;;;;;;;;;;11.08;59.09;95334.06;10520252;28;2826;-74
2023/02/22 10:10:51;;;;;;;;;;;;;;;11.42;57.03;95327.72;10522950;28;2016;-73
2023/02/22 10:16:04;;;;;;;;;;;;;;;11.49;57.40;95322.78;10526412;28;1966;-75
2023/02/22 10:21:07;;;;;;;;;;;;;;;11.61;57.89;95317.78;10508507;28;2071;-74
2023/02/22 10:26:09;;;;;;;;;;;;;;;11.59;59.94;95322.66;10519294;28;2749;-74
2023/02/22 10:31:13;;;;;;;;;;;;;;;11.78;60.39;95319.97;10523320;28;2769;-74
2023/02/22 10:36:16;;;;;;;;;;;;;;;11.68;60.30;95304.75;10525599;28;2037;-75
2023/02/22 10:41:20;;;;;;;;;;;;;;;11.97;60.97;95307.31;10522695;28;2781;-74
2023/02/22 10:46:23;;;;;;;;;;;;;;;12.04;61.26;95302.34;10520161;28;3099;-72
2023/02/22 10:51:26;;;;;;;;;;;;;;;12.21;61.83;95307.16;10514849;28;2100;-69
2023/02/22 10:56:29;;;;;;;;;;;;;;;12.28;60.62;95299.53;10510931;28;2097;-69
2023/02/22 11:01:32;;;;;;;;;;;;;;;12.27;60.71;95295.22;10520839;28;2044;-68
2023/02/22 11:06:36;;;;;;;;;;;;;;;12.47;61.32;95293.25;10514936;28;2000;-69
2023/02/22 11:11:38;;;;;;;;;;;;;;;12.98;59.23;95280.44;10519763;28;2718;-69
2023/02/22 11:16:41;;;;;;;;;;;;;;;13.28;58.68;95280.13;10517929;28;2022;-69
2023/02/22 11:21:44;;;;;;;;;;;;;;;13.34;58.13;95274.31;10519713;28;2777;-70
2023/02/22 11:26:47;;;;;;;;;;;;;;;13.73;57.01;95262.91;10526640;28;2735;-70
2023/02/22 11:31:50;;;;;;;;;;;;;;;13.84;55.60;95252.66;10524351;28;2128;-69
2023/02/22 11:36:53;;;;;;;;;;;;;;;13.84;55.47;95244.56;10528720;28;2769;-70
2023/02/22 11:41:56;;;;;;;;;;;;;;;14.28;55.83;95238.34;10522923;28;2757;-69
2023/02/22 11:47:00;;;;;;;;;;;;;;;14.09;54.77;95234.25;10520411;28;2167;-71
2023/02/22 11:52:03;;;;;;;;;;;;;;;14.30;54.29;95235.31;10524821;28;2108;-69
2023/02/22 11:57:06;;;;;;;;;;;;;;;14.17;54.61;95226.19;10529708;28;2042;-70
2023/02/22 12:02:09;;;;;;;;;;;;;;;14.32;54.50;95216.91;10526691;28;2734;-72
2023/02/22 12:07:14;;;;;;;;;;;;;;;14.41;54.07;95216.94;10528426;28;2761;-72
2023/02/22 12:12:17;;;;;;;;;;;;;;;14.50;54.01;95213.16;10522555;28;2686;-69
2023/02/22 12:17:20;;;;;;;;;;;;;;;14.30;54.00;95208.28;10521238;28;2071;-70
2023/02/22 12:22:22;;;;;;;;;;;;;;;14.41;53.74;95204.19;10512532;28;2101;-77
2023/02/22 12:27:27;;;;;;;;;;;;;;;14.41;53.87;95206.91;10535803;28;2751;-78
2023/02/22 12:32:30;;;;;;;;;;;;;;;14.36;52.89;95196.22;10522978;28;2734;-73
2023/02/22 12:37:32;;;;;;;;;;;;;;;14.49;53.06;95194.56;10523782;28;2765;-73
2023/02/22 12:42:35;;;;;;;;;;;;;;;14.38;53.56;95188.63;10521493;28;2166;-73
2023/02/22 12:47:37;;;;;;;;;;;;;;;14.65;52.81;95184.13;10520058;28;2025;-73
2023/02/22 12:52:40;;;;;;;;;;;;;;;14.72;53.40;95184.47;10517973;28;2678;-73
2023/02/22 12:57:43;;;;;;;;;;;;;;;14.80;53.73;95184.47;10524045;28;2036;-75
2023/02/22 13:02:46;;;;;;;;;;;;;;;14.60;54.73;95174.25;10521789;28;2730;-74
2023/02/22 13:07:49;;;;;;;;;;;;;;;14.49;55.91;95170.22;10514664;28;2141;-74
2023/02/22 13:12:52;;;;;;;;;;;;;;;14.52;57.06;95161.50;10526143;28;2682;-74
2023/02/22 13:17:57;;;;;;;;;;;;;;;14.79;56.95;95160.44;10525937;28;2739;-74
2023/02/22 13:23:03;;;;;;;;;;;;;;;14.97;55.97;95167.50;10525695;28;2706;-73
2023/02/22 13:28:05;;;;;;;;;;;;;;;15.03;55.94;95155.41;10526031;28;2812;-75
2023/02/22 13:33:08;;;;;;;;;;;;;;;14.89;55.50;95160.16;10526200;28;2693;-72
2023/02/22 13:38:10;;;;;;;;;;;;;;;14.86;56.19;95149.97;10528539;28;2766;-72
2023/02/22 13:43:14;;;;;;;;;;;;;;;15.13;56.18;95141.53;10521968;28;2776;-70
2023/02/22 13:48:17;;;;;;;;;;;;;;;15.25;55.90;95145.53;10534342;28;2020;-72
2023/02/22 13:53:19;;;;;;;;;;;;;;;15.10;56.58;95133.28;10536883;28;2032;-71
2023/02/22 13:58:22;;;;;;;;;;;;;;;15.21;56.94;95136.47;10528293;28;2750;-73
2023/02/22 14:03:25;;;;;;;;;;;;;;;15.74;57.62;95135.34;10528241;28;2809;-73
2023/02/22 14:08:30;;;;;;;;;;;;;;;15.41;56.64;95133.94;10529545;28;2643;-73
2023/02/22 14:13:32;;;;;;;;;;;;;;;15.52;56.13;95133.56;10518052;28;2753;-71
2023/02/22 14:18:35;;;;;;;;;;;;;;;15.47;56.76;95128.34;10518837;28;2674;-74
2023/02/22 14:23:39;;;;;;;;;;;;;;;15.43;56.01;95136.31;10525698;28;2057;-72
2023/02/22 14:28:45;;;;;;;;;;;;;;;15.40;56.79;95124.22;10525847;28;2710;-73
2023/02/22 14:33:47;;;;;;;;;;;;;;;15.39;56.64;95125.31;10520942;28;2730;-74
2023/02/22 14:38:53;;;;;;;;;;;;;;;15.26;56.47;95130.88;10523155;28;2017;-73
2023/02/22 14:43:55;;;;;;;;;;;;;;;15.19;57.42;95123.25;10519493;28;2663;-73
2023/02/22 14:48:58;;;;;;;;;;;;;;;14.90;57.08;95125.78;10521565;28;2786;-73
2023/02/22 14:54:01;;;;;;;;;;;;;;;15.02;57.55;95125.97;10524996;28;2756;-73
2023/02/22 14:59:06;;;;;;;;;;;;;;;14.99;57.93;95130.06;10526017;28;2076;-73
2023/02/22 15:04:09;;;;;;;;;;;;;;;14.90;59.06;95132.00;10533893;28;2735;-73
2023/02/22 15:09:22;;;;;;;;;;;;;;;14.88;58.70;95131.50;10529365;28;2055;-73
2023/02/22 15:14:25;;;;;;;;;;;;;;;14.56;60.70;95138.91;10525161;28;2710;-75
2023/02/22 15:19:28;;;;;;;;;;;;;;;14.46;61.35;95135.66;10528938;28;2690;-74
2023/02/22 15:24:30;;;;;;;;;;;;;;;14.27;62.90;95133.22;10521814;28;2844;-75
2023/02/22 15:29:34;;;;;;;;;;;;;;;13.87;63.25;95146.72;10535491;28;2710;-75
2023/02/22 15:34:36;;;;;;;;;;;;;;;13.83;62.13;95140.31;10528785;28;2039;-72
2023/02/22 15:39:42;;;;;;;;;;;;;;;13.59;62.58;95137.94;10531605;28;2783;-74
2023/02/22 15:44:45;;;;;;;;;;;;;;;13.55;63.16;95133.44;10524157;28;2769;-75
2023/02/22 15:49:48;;;;;;;;;;;;;;;13.42;64.33;95143.22;10532817;28;2726;-76
2023/02/22 15:54:51;;;;;;;;;;;;;;;13.16;66.13;95143.78;10532106;28;2705;-74
2023/02/22 15:59:53;;;;;;;;;;;;;;;13.07;67.48;95144.81;10536092;28;2699;-74
2023/02/22 16:04:56;;;;;;;;;;;;;;;12.93;68.79;95145.66;10531652;28;2090;-75
2023/02/22 16:10:07;;;;;;;;;;;;;;;12.85;71.09;95145.56;10530851;28;2635;-74
2023/02/22 16:15:10;;;;;;;;;;;;;;;12.78;71.30;95154.06;10528752;28;2158;-77
2023/02/22 16:20:23;;;;;;;;;;;;;;;12.70;72.71;95152.88;10530497;28;2884;-73
2023/02/22 16:25:26;;;;;;;;;;;;;;;12.47;74.90;95159.31;10499425;28;2808;-76
2023/02/22 16:30:31;;;;;;;;;;;;;;;12.24;77.60;95154.91;10527083;28;2044;-75
2023/02/22 16:35:34;;;;;;;;;;;;;;;12.03;80.81;95155.28;10520040;28;2635;-78
2023/02/22 16:40:37;;;;;;;;;;;;;;;11.84;83.04;95154.56;10525481;28;2787;-76
2023/02/22 16:45:40;;;;;;;;;;;;;;;11.82;79.13;95165.59;10522382;28;2686;-75
2023/02/22 16:50:44;;;;;;;;;;;;;;;11.58;80.63;95165.72;10524836;28;2670;-77
2023/02/22 16:55:48;;;;;;;;;;;;;;;11.31;84.56;95174.47;10518720;28;2627;-76
2023/02/22 17:00:50;;;;;;;;;;;;;;;11.15;83.84;95175.81;10522076;28;2088;-75
2023/02/22 17:05:53;;;;;;;;;;;;;;;10.99;84.94;95182.47;10519482;28;2168;-74
2023/02/22 17:10:56;;;;;;;;;;;;;;;10.74;87.20;95173.66;10526426;28;2037;-75
2023/02/22 17:15:59;;;;;;;;;;;;;;;10.64;88.69;95189.94;10518122;28;2891;-75
2023/02/22 17:21:05;;;;;;;;;;;;;;;10.61;90.03;95189.69;10505392;28;2742;-75
2023/02/22 17:26:07;;;;;;;;;;;;;;;10.48;91.55;95197.38;10523514;28;2053;-75
2023/02/22 17:31:09;;;;;;;;;;;;;;;10.32;93.08;95195.16;10501989;28;2743;-74
2023/02/22 17:36:12;;;;;;;;;;;;;;;10.20;94.62;95201.69;10526868;28;2751;-74
2023/02/22 17:41:21;;;;;;;;;;;;;;;10.01;98.87;95203.50;10464524;27;2771;-76
2023/02/22 17:46:23;;;;;;;;;;;;;;;9.84;99.25;95206.59;10433336;28;2067;-74
2023/02/22 17:51:26;;;;;;;;;;;;;;;9.81;99.92;95209.06;10430794;28;2724;-75
2023/02/22 17:56:29;;;;;;;;;;;;;;;9.79;99.35;95208.53;10433654;28;1987;-74
2023/02/22 18:01:32;;;;;;;;;;;;;;;9.73;100.00;95203.22;10428305;28;2072;-75
2023/02/22 18:06:36;;;;;;;;;;;;;;;9.80;100.00;95208.25;10431971;28;2780;-75
2023/02/22 18:11:39;;;;;;;;;;;;;;;9.86;100.00;95195.56;10434576;28;2753;-74
2023/02/22 18:16:42;;;;;;;;;;;;;;;9.81;100.00;95206.38;10436038;28;2715;-74
2023/02/22 18:21:44;;;;;;;;;;;;;;;9.71;100.00;95209.94;10432850;28;2943;-73
2023/02/22 18:26:47;;;;;;;;;;;;;;;9.66;100.00;95212.66;10435161;28;2814;-73
2023/02/22 18:31:52;;;;;;;;;;;;;;;9.53;100.00;95197.19;10428419;28;2828;-73
2023/02/22 18:36:55;;;;;;;;;;;;;;;9.46;100.00;95197.53;10430013;28;2783;-73
2023/02/22 18:41:57;;;;;;;;;;;;;;;9.27;100.00;95194.72;10435946;28;2016;-73
2023/02/22 18:47:00;;;;;;;;;;;;;;;9.12;100.00;95200.97;10430788;28;2713;-72
2023/02/22 18:52:04;;;;;;;;;;;;;;;9.00;100.00;95205.88;10411670;28;2817;-67
2023/02/22 18:57:06;;;;;;;;;;;;;;;8.89;100.00;95204.34;10394683;28;2816;-67
2023/02/22 19:02:08;;;;;;;;;;;;;;;8.66;100.00;95201.25;10398518;28;2724;-68
2023/02/22 19:07:16;;;;;;;;;;;;;;;8.48;100.00;95204.53;10389929;28;2760;-68
2023/02/22 19:12:18;;;;;;;;;;;;;;;8.41;100.00;95204.03;10405637;28;2785;-69
2023/02/22 19:17:21;;;;;;;;;;;;;;;8.34;100.00;95206.97;10401516;28;2725;-66
2023/02/22 19:22:25;;;;;;;;;;;;;;;8.19;100.00;95209.66;10405619;28;2775;-69
2023/02/22 19:27:29;;;;;;;;;;;;;;;8.10;100.00;95214.00;10399745;28;2785;-69
2023/02/22 19:32:32;;;;;;;;;;;;;;;8.45;100.00;95218.44;10403754;28;2767;-68
2023/02/22 19:37:35;;;;;;;;;;;;;;;8.60;100.00;95223.78;10403532;28;2766;-66
2023/02/22 19:42:38;;;;;;;;;;;;;;;8.58;100.00;95228.59;10407080;28;2725;-67
2023/02/22 19:47:40;;;;;;;;;;;;;;;8.49;100.00;95224.88;10399555;28;2907;-66
2023/02/22 19:52:43;;;;;;;;;;;;;;;8.52;100.00;95232.34;10403164;28;2020;-68
2023/02/22 19:57:45;;;;;;;;;;;;;;;8.38;100.00;95234.00;10398098;28;2015;-72
2023/02/22 20:02:48;;;;;;;;;;;;;;;8.40;100.00;95234.56;10399717;28;2701;-74
2023/02/22 20:07:51;;;;;;;;;;;;;;;8.38;100.00;95236.69;10403010;28;2846;-76
2023/02/22 20:12:54;;;;;;;;;;;;;;;8.30;100.00;95251.41;10401632;28;2878;-67
2023/02/22 20:17:57;;;;;;;;;;;;;;;8.18;100.00;95242.88;10400496;28;2731;-68
2023/02/22 20:23:00;;;;;;;;;;;;;;;8.13;100.00;95241.00;10403663;28;2741;-69
2023/02/22 20:28:02;;;;;;;;;;;;;;;8.07;100.00;95247.44;10405091;28;1987;-68
2023/02/22 20:33:08;;;;;;;;;;;;;;;8.16;100.00;95245.03;10397249;28;2804;-69
2023/02/22 20:38:12;;;;;;;;;;;;;;;8.05;100.00;95252.28;10397215;28;2758;-71
2023/02/22 20:43:15;;;;;;;;;;;;;;;8.02;100.00;95252.81;10398360;28;2043;-69
2023/02/22 20:48:18;;;;;;;;;;;;;;;8.09;100.00;95256.03;10396940;28;2733;-68
2023/02/22 20:53:21;;;;;;;;;;;;;;;8.06;100.00;95256.53;10398757;28;3307;-68
2023/02/22 20:58:24;;;;;;;;;;;;;;;8.00;100.00;95257.63;10394258;28;2046;-68
2023/02/22 21:03:26;;;;;;;;;;;;;;;7.99;100.00;95258.69;10401215;28;2027;-69
2023/02/22 21:08:30;;;;;;;;;;;;;;;7.87;100.00;95258.16;10397244;28;2784;-69
2023/02/22 21:13:33;;;;;;;;;;;;;;;7.84;100.00;95253.38;10402044;28;2023;-68
2023/02/22 21:18:35;;;;;;;;;;;;;;;7.73;100.00;95259.78;10398673;28;2774;-67
2023/02/22 21:23:38;;;;;;;;;;;;;;;7.78;100.00;95249.09;10398178;28;2675;-67
2023/02/22 21:28:42;;;;;;;;;;;;;;;7.82;100.00;95247.47;10398122;28;2758;-70
2023/02/22 21:33:52;;;;;;;;;;;;;;;7.77;100.00;95247.50;10394718;28;2047;-69
2023/02/22 21:38:55;;;;;;;;;;;;;;;7.86;100.00;95246.66;10394171;28;2802;-68
2023/02/22 21:43:57;;;;;;;;;;;;;;;7.96;100.00;95253.91;10394367;28;2022;-67
2023/02/22 21:49:00;;;;;;;;;;;;;;;7.90;100.00;95257.66;10390139;28;2848;-68
2023/02/22 21:54:03;;;;;;;;;;;;;;;7.88;100.00;95253.63;10396654;28;2697;-68
2023/02/22 21:59:05;;;;;;;;;;;;;;;7.94;100.00;95258.69;10396439;28;2007;-67
2023/02/22 22:04:08;;;;;;;;;;;;;;;7.98;100.00;95253.63;10405069;28;2795;-69
2023/02/22 22:09:17;;;;;;;;;;;;;;;7.96;100.00;95245.88;10402805;28;2808;-69
2023/02/22 22:14:19;;;;;;;;;;;;;;;7.85;100.00;95252.28;10401311;28;2717;-69
2023/02/22 22:19:22;;;;;;;;;;;;;;;7.83;100.00;95249.09;10405499;28;2815;-70
2023/02/22 22:24:27;;;;;;;;;;;;;;;7.87;100.00;95242.13;10408340;28;2701;-70
2023/02/22 22:29:29;;;;;;;;;;;;;;;7.86;100.00;95251.22;10413624;28;2800;-68
2023/02/22 22:34:33;;;;;;;;;;;;;;;7.83;100.00;95251.78;10410540;28;2756;-70
2023/02/22 22:39:37;;;;;;;;;;;;;;;7.74;100.00;95240.78;10408088;28;2708;-69
2023/02/22 22:44:41;;;;;;;;;;;;;;;7.76;100.00;95240.50;10405521;28;2780;-67
2023/02/22 22:49:44;;;;;;;;;;;;;;;7.82;100.00;95240.25;10412694;28;2683;-71
2023/02/22 22:54:49;;;;;;;;;;;;;;;7.78;100.00;95243.75;10416462;28;2775;-68
2023/02/22 22:59:52;;;;;;;;;;;;;;;7.72;100.00;95250.16;10406543;28;2757;-69
2023/02/22 23:04:55;;;;;;;;;;;;;;;7.71;100.00;95244.00;10411417;28;2794;-67
2023/02/22 23:09:58;;;;;;;;;;;;;;;7.75;100.00;95252.28;10413795;28;2123;-68
2023/02/22 23:15:01;;;;;;;;;;;;;;;7.65;100.00;95265.69;10400064;28;2818;-68
2023/02/22 23:20:10;;;;;;;;;;;;;;;7.61;100.00;95254.69;10415664;28;3231;-68
2023/02/22 23:25:12;;;;;;;;;;;;;;;7.56;100.00;95268.88;10404480;28;2827;-67
2023/02/22 23:30:25;;;;;;;;;;;;;;;7.46;100.00;95273.41;10405422;28;2095;-69
2023/02/22 23:35:28;;;;;;;;;;;;;;;7.38;100.00;95274.75;10409955;28;2769;-67
2023/02/22 23:40:31;;;;;;;;;;;;;;;7.35;100.00;95272.59;10404168;28;2816;-67
2023/02/22 23:45:37;;;;;;;;;;;;;;;7.30;100.00;95281.41;10409496;28;2047;-68
2023/02/22 23:50:40;;;;;;;;;;;;;;;7.23;100.00;95280.06;10416716;28;2692;-76
2023/02/22 23:55:43;;;;;;;;;;;;;;;7.23;100.00;95269.38;10400628;28;2712;-70
